createdAt,value
2022-10-21T00:01:31.318Z,8.27
2022-10-21T00:06:33.737Z,9.50
2022-10-21T00:11:36.247Z,8.30
2022-10-21T00:16:38.753Z,8.30
2022-10-21T00:21:42.480Z,8.43
2022-10-21T00:26:44.988Z,10.50
2022-10-21T00:31:47.458Z,8.77
2022-10-21T00:36:50.192Z,9.80
2022-10-21T00:41:52.668Z,11.17
2022-10-21T00:46:58.442Z,9.43
2022-10-21T00:52:03.497Z,8.87
2022-10-21T00:57:06.620Z,8.77
2022-10-21T01:02:09.095Z,10.60
2022-10-21T01:07:12.300Z,9.97
2022-10-21T01:12:41.021Z,8.83
2022-10-21T01:18:04.996Z,9.47
2022-10-21T01:23:35.540Z,9.00
2022-10-21T01:29:06.217Z,9.50
2022-10-21T01:34:11.862Z,9.10
2022-10-21T01:39:27.863Z,10.60
2022-10-21T01:44:53.427Z,8.87
2022-10-21T01:50:02.214Z,9.03
2022-10-21T01:55:10.220Z,9.23
2022-10-21T02:00:13.192Z,8.07
2022-10-21T02:05:30.428Z,9.83
2022-10-21T02:10:37.430Z,9.73
2022-10-21T02:15:42.200Z,9.53
2022-10-21T02:20:50.089Z,10.10
2022-10-21T02:25:52.982Z,9.67
2022-10-21T02:31:21.538Z,7.97
2022-10-21T02:36:53.512Z,8.17
2022-10-21T02:41:57.989Z,10.40
2022-10-21T02:47:00.535Z,10.93
2022-10-21T02:52:03.137Z,10.73
2022-10-21T02:57:05.652Z,10.60
2022-10-21T03:02:08.055Z,9.10
2022-10-21T03:07:10.462Z,9.87
2022-10-21T03:12:12.958Z,9.17
2022-10-21T03:17:15.491Z,11.23
2022-10-21T03:22:18.160Z,8.83
2022-10-21T03:27:20.677Z,10.53
2022-10-21T03:32:23.193Z,11.87
2022-10-21T03:37:25.965Z,10.33
2022-10-21T03:42:29.125Z,12.20
2022-10-21T03:47:33.299Z,9.00
2022-10-21T03:52:35.909Z,10.27
2022-10-21T03:57:38.845Z,8.27
2022-10-21T04:02:41.641Z,12.37
2022-10-21T04:07:46.078Z,8.60
2022-10-21T04:12:50.529Z,8.20
2022-10-21T04:17:53.095Z,12.07
2022-10-21T04:22:55.746Z,9.90
2022-10-21T04:27:58.137Z,10.83
2022-10-21T04:33:00.565Z,9.80
2022-10-21T04:38:03.053Z,7.93
2022-10-21T04:43:05.552Z,7.83
2022-10-21T04:48:08.319Z,7.17
2022-10-21T04:53:11.039Z,7.17
2022-10-21T04:58:13.854Z,8.67
2022-10-21T05:03:18.847Z,9.50
2022-10-21T05:08:21.373Z,14.00
2022-10-21T05:13:23.850Z,10.03
2022-10-21T05:18:26.752Z,11.23
2022-10-21T05:23:29.184Z,10.60
2022-10-21T05:28:31.630Z,8.70
2022-10-21T05:33:34.447Z,12.07
2022-10-21T05:38:36.912Z,12.90
2022-10-21T05:43:39.303Z,9.33
2022-10-21T05:48:41.871Z,9.47
2022-10-21T05:53:44.343Z,9.90
2022-10-21T05:58:46.800Z,10.53
2022-10-21T06:03:49.202Z,10.53
2022-10-21T06:08:52.083Z,11.80
2022-10-21T06:13:54.687Z,11.43
2022-10-21T06:18:57.167Z,9.93
2022-10-21T06:23:59.770Z,10.10
2022-10-21T06:29:02.260Z,9.00
2022-10-21T06:34:04.797Z,10.57
2022-10-21T06:39:07.910Z,9.37
2022-10-21T06:44:10.510Z,11.10
2022-10-21T06:49:13.118Z,9.93
2022-10-21T06:54:15.591Z,12.53
2022-10-21T06:59:18.046Z,8.97
2022-10-21T07:04:20.515Z,9.13
2022-10-21T07:09:23.234Z,12.33
2022-10-21T07:14:25.702Z,14.40
2022-10-21T07:19:28.660Z,12.53
2022-10-21T07:24:31.121Z,13.73
2022-10-21T07:29:33.762Z,12.30
2022-10-21T07:34:36.182Z,12.07
2022-10-21T07:39:38.771Z,12.23
2022-10-21T07:44:41.371Z,9.40
2022-10-21T07:49:43.819Z,10.43
2022-10-21T07:54:46.459Z,10.03
2022-10-21T07:59:48.947Z,11.10
2022-10-21T08:04:54.147Z,10.83
2022-10-21T08:09:57.935Z,8.93
2022-10-21T08:15:00.303Z,13.43
2022-10-21T08:20:02.893Z,10.63
2022-10-21T08:25:05.731Z,10.93
2022-10-21T08:30:08.592Z,13.93
2022-10-21T08:35:11.140Z,10.83
2022-10-21T08:40:13.607Z,9.87
2022-10-21T08:45:33.839Z,10.63
2022-10-21T08:50:41.414Z,10.00
2022-10-21T08:55:46.066Z,9.93
2022-10-21T09:00:48.559Z,11.67
2022-10-21T09:06:21.720Z,9.93
2022-10-21T09:11:45.636Z,11.30
2022-10-21T09:16:56.995Z,9.73
2022-10-21T09:22:47.000Z,12.40
2022-10-21T09:27:56.554Z,10.13
2022-10-21T09:33:00.895Z,14.40
2022-10-21T09:38:31.210Z,10.03
2022-10-21T09:43:33.567Z,13.57
2022-10-21T09:49:06.909Z,10.97
2022-10-21T09:54:13.524Z,16.63
2022-10-21T09:59:21.393Z,15.10
2022-10-21T10:04:26.617Z,14.80
2022-10-21T10:09:33.918Z,7.97
2022-10-21T10:14:39.303Z,13.17
2022-10-21T10:19:41.704Z,9.93
2022-10-21T10:24:45.260Z,13.50
2022-10-21T10:29:56.348Z,10.43
2022-10-21T10:35:05.754Z,10.20
2022-10-21T10:40:10.697Z,9.03
2022-10-21T10:45:16.522Z,9.07
2022-10-21T10:50:37.797Z,12.97
2022-10-21T10:55:44.908Z,10.97
2022-10-21T11:00:51.704Z,12.93
2022-10-21T11:06:01.415Z,6.83
2022-10-21T11:11:07.534Z,9.80
2022-10-21T11:16:50.473Z,8.13
2022-10-21T11:22:35.243Z,7.00
2022-10-21T11:27:55.860Z,7.33
2022-10-21T11:33:11.062Z,7.93
2022-10-21T11:38:37.604Z,8.97
2022-10-21T11:43:46.836Z,9.27
2022-10-21T11:48:52.087Z,9.87
2022-10-21T11:54:26.599Z,12.60
2022-10-21T12:00:00.121Z,8.60
2022-10-21T12:05:15.709Z,11.50
2022-10-21T12:10:40.020Z,8.30
2022-10-21T12:15:48.105Z,18.00
2022-10-21T12:20:56.091Z,12.83
2022-10-21T12:26:31.253Z,13.80
2022-10-21T12:31:58.664Z,14.93
2022-10-21T12:37:02.146Z,14.83
2022-10-21T12:42:18.776Z,15.00
2022-10-21T12:47:25.758Z,15.17
2022-10-21T12:52:28.219Z,15.67
2022-10-21T12:57:35.369Z,15.80
2022-10-21T13:02:56.475Z,16.03
2022-10-21T13:08:22.901Z,16.93
2022-10-21T13:13:40.779Z,15.50
2022-10-21T13:18:59.093Z,15.20
2022-10-21T13:24:13.636Z,15.00
2022-10-21T13:29:45.865Z,20.33
2022-10-21T13:34:51.493Z,19.37
2022-10-21T13:39:57.233Z,20.07
2022-10-21T13:45:07.547Z,15.87
2022-10-21T13:50:10.032Z,15.87
2022-10-21T13:55:22.115Z,15.97
2022-10-21T14:00:30.814Z,17.80
2022-10-21T14:05:41.080Z,16.57
2022-10-21T14:10:47.551Z,9.73
2022-10-21T14:15:51.295Z,6.90
2022-10-21T14:20:54.254Z,8.57
2022-10-21T14:26:05.081Z,6.10
2022-10-21T14:31:12.236Z,15.23
2022-10-21T14:36:20.625Z,16.80
2022-10-21T14:41:34.358Z,13.00
2022-10-21T14:46:48.350Z,13.67
2022-10-21T14:51:57.338Z,13.70
2022-10-21T14:57:01.472Z,12.27
2022-10-21T15:02:05.000Z,13.47
2022-10-21T15:07:16.958Z,13.17
2022-10-21T15:12:19.684Z,13.77
2022-10-21T15:17:23.301Z,13.90
2022-10-21T15:22:25.649Z,16.87
2022-10-21T15:27:36.611Z,25.83
2022-10-21T15:32:39.883Z,18.53
2022-10-21T15:37:42.513Z,18.97
2022-10-21T15:42:46.099Z,19.20
2022-10-21T15:47:52.891Z,9.03
2022-10-21T15:57:58.545Z,9.53
2022-10-21T16:03:01.490Z,11.77
2022-10-21T16:08:04.090Z,14.77
2022-10-21T16:13:06.508Z,14.13
2022-10-21T16:18:14.118Z,14.53
2022-10-21T16:23:16.450Z,10.20
2022-10-21T16:28:18.856Z,15.70
2022-10-21T16:33:21.387Z,10.80
2022-10-21T16:38:23.959Z,27.40
2022-10-21T16:43:26.396Z,20.60
2022-10-21T16:48:28.826Z,14.80
2022-10-21T16:53:31.219Z,16.37
2022-10-21T16:58:33.812Z,15.67
2022-10-21T17:03:36.637Z,15.67
2022-10-21T17:08:39.143Z,20.53
2022-10-21T17:13:45.278Z,18.47
2022-10-21T17:18:48.391Z,11.50
2022-10-21T17:23:51.791Z,14.40
2022-10-21T17:28:54.192Z,15.00
2022-10-21T17:33:59.622Z,12.97
2022-10-21T17:39:02.746Z,14.00
2022-10-21T17:44:08.387Z,16.03
2022-10-21T17:49:10.862Z,10.97
2022-10-21T17:54:13.197Z,15.77
2022-10-21T17:59:15.644Z,22.90
2022-10-21T18:04:18.067Z,25.83
2022-10-21T18:09:20.843Z,20.87
2022-10-21T18:14:23.797Z,21.37
2022-10-21T18:19:26.774Z,22.27
2022-10-21T18:24:29.397Z,21.93
2022-10-21T18:29:32.788Z,21.37
2022-10-21T18:34:35.577Z,22.50
2022-10-21T18:39:38.310Z,18.57
2022-10-21T18:44:41.010Z,21.63
2022-10-21T18:49:43.999Z,24.47
2022-10-21T18:54:46.907Z,24.30
2022-10-21T18:59:49.668Z,24.70
2022-10-21T19:04:52.709Z,25.73
2022-10-21T19:09:56.663Z,25.73
2022-10-21T19:14:59.681Z,26.67
2022-10-21T19:20:04.088Z,23.60
2022-10-21T19:25:07.630Z,23.70
2022-10-21T19:30:11.163Z,23.77
2022-10-21T19:35:13.848Z,22.77
2022-10-21T19:40:16.894Z,23.47
2022-10-21T19:45:19.975Z,23.47
2022-10-21T19:50:22.794Z,20.40
2022-10-21T19:55:25.552Z,21.83
2022-10-21T20:00:28.292Z,17.40
2022-10-21T20:05:34.444Z,19.30
2022-10-21T20:10:37.101Z,17.27
2022-10-21T20:15:47.315Z,15.47
2022-10-21T20:20:50.164Z,16.63
2022-10-21T20:25:57.974Z,15.33
2022-10-21T20:31:08.378Z,17.33
2022-10-21T20:36:15.794Z,17.20
2022-10-21T20:41:22.432Z,13.83
2022-10-21T20:46:25.934Z,15.93
2022-10-21T20:51:30.088Z,16.40
2022-10-21T20:56:35.265Z,15.13
2022-10-21T21:01:41.928Z,15.47
2022-10-21T21:06:46.824Z,14.83
2022-10-21T21:11:49.267Z,15.93
2022-10-21T21:16:51.722Z,15.77
2022-10-21T21:21:54.339Z,15.53
2022-10-21T21:26:56.897Z,15.70
2022-10-21T21:31:59.550Z,15.77
2022-10-21T21:37:02.064Z,17.63
2022-10-21T21:42:04.618Z,17.37
2022-10-21T21:47:07.333Z,10.17
2022-10-21T21:52:09.730Z,16.03
2022-10-21T21:57:28.546Z,14.33
2022-10-21T22:02:31.216Z,13.10
2022-10-21T22:07:33.744Z,12.43
2022-10-21T22:12:36.163Z,10.57
2022-10-21T22:17:39.164Z,10.90
2022-10-21T22:22:41.815Z,10.40
2022-10-21T22:27:45.120Z,10.10
2022-10-21T22:32:47.531Z,8.13
2022-10-21T22:37:49.865Z,9.27
2022-10-21T22:42:52.443Z,10.23
2022-10-21T22:47:55.106Z,9.77
2022-10-21T22:52:57.640Z,9.20
2022-10-21T22:58:00.030Z,11.83
2022-10-21T23:03:06.042Z,11.70
2022-10-21T23:08:11.601Z,14.67
2022-10-21T23:13:14.135Z,14.77
2022-10-21T23:18:17.638Z,13.80
2022-10-21T23:23:20.119Z,12.03
2022-10-21T23:28:22.543Z,15.30
2022-10-21T23:33:25.644Z,16.70
2022-10-21T23:38:28.201Z,15.77
2022-10-21T23:43:30.595Z,17.83
2022-10-21T23:48:33.169Z,18.20
2022-10-21T23:53:35.702Z,18.13
2022-10-21T23:58:38.286Z,14.97
